Pear Ridge, Texas
Current Conditions -  °F | °C
As of 4:31 AM on Sunday 26 Oct 2014 (Local Time) from KBPT Reporting Station
Haze Haze  
Wind Chill: 55°   Ceiling: Unl
Heat Index: 55°   Visibility: 0.75mi
Dew Point: 54°   Wind: 0mph
Humidity: 96%   Direction: NA
Pressure: 30.05"   Gusts: NA
Location:  29.7569°N, 94.1898°W
Report Text: KBPT 260931Z AUTO 00000KT 3/4SM R12/P6000FT BR CLR 13/12 A3005 RMK AO2 T01280122
Loading
Personal Weather Stations






























Interactive Weather Map
Tropical Storm Tracking
New forecast layout! Learn more

10-Day Weather Forecast

Advertisements
Track Severe Weather on mobile